sensor_id;sensor_type;location;lat;lon;timestamp;temperature;humidity
23713;DHT22;12035;49.978;8.298;2024-03-02T00:00:24;9.50;76.10
23713;DHT22;12035;49.978;8.298;2024-03-02T00:05:22;9.50;76.10
23713;DHT22;12035;49.978;8.298;2024-03-02T00:10:21;9.40;76.10
23713;DHT22;12035;49.978;8.298;2024-03-02T00:15:39;9.40;76.20
23713;DHT22;12035;49.978;8.298;2024-03-02T00:20:38;9.40;76.60
23713;DHT22;12035;49.978;8.298;2024-03-02T00:25:38;9.40;76.30
23713;DHT22;12035;49.978;8.298;2024-03-02T00:30:59;9.30;76.40
23713;DHT22;12035;49.978;8.298;2024-03-02T00:35:59;9.30;76.80
23713;DHT22;12035;49.978;8.298;2024-03-02T00:40:59;9.20;76.40
23713;DHT22;12035;49.978;8.298;2024-03-02T00:46:00;9.20;76.40
23713;DHT22;12035;49.978;8.298;2024-03-02T00:50:57;9.20;76.40
23713;DHT22;12035;49.978;8.298;2024-03-02T00:55:55;9.10;76.30
23713;DHT22;12035;49.978;8.298;2024-03-02T01:00:52;9.10;76.40
23713;DHT22;12035;49.978;8.298;2024-03-02T01:05:50;9.00;76.50
23713;DHT22;12035;49.978;8.298;2024-03-02T01:10:47;9.00;76.80
23713;DHT22;12035;49.978;8.298;2024-03-02T01:15:44;8.90;76.90
23713;DHT22;12035;49.978;8.298;2024-03-02T01:20:41;8.90;77.00
23713;DHT22;12035;49.978;8.298;2024-03-02T01:25:40;8.90;77.30
23713;DHT22;12035;49.978;8.298;2024-03-02T01:30:37;8.90;77.40
23713;DHT22;12035;49.978;8.298;2024-03-02T01:35:34;8.90;77.40
23713;DHT22;12035;49.978;8.298;2024-03-02T01:40:32;8.80;77.40
23713;DHT22;12035;49.978;8.298;2024-03-02T01:45:31;8.80;77.50
23713;DHT22;12035;49.978;8.298;2024-03-02T01:50:29;8.70;77.80
23713;DHT22;12035;49.978;8.298;2024-03-02T01:55:28;8.70;77.90
23713;DHT22;12035;49.978;8.298;2024-03-02T02:00:26;8.60;78.00
23713;DHT22;12035;49.978;8.298;2024-03-02T02:05:25;8.60;78.20
23713;DHT22;12035;49.978;8.298;2024-03-02T02:10:22;8.60;78.40
23713;DHT22;12035;49.978;8.298;2024-03-02T02:15:23;8.60;78.40
23713;DHT22;12035;49.978;8.298;2024-03-02T02:20:21;8.60;78.50
23713;DHT22;12035;49.978;8.298;2024-03-02T02:25:20;8.60;78.40
23713;DHT22;12035;49.978;8.298;2024-03-02T02:30:21;8.60;78.40
23713;DHT22;12035;49.978;8.298;2024-03-02T02:35:20;8.60;78.40
23713;DHT22;12035;49.978;8.298;2024-03-02T02:40:17;8.50;78.20
23713;DHT22;12035;49.978;8.298;2024-03-02T02:45:17;8.50;78.30
23713;DHT22;12035;49.978;8.298;2024-03-02T02:50:15;8.50;78.50
23713;DHT22;12035;49.978;8.298;2024-03-02T02:55:13;8.40;78.40
23713;DHT22;12035;49.978;8.298;2024-03-02T03:00:13;8.40;78.70
23713;DHT22;12035;49.978;8.298;2024-03-02T03:05:13;8.30;79.00
23713;DHT22;12035;49.978;8.298;2024-03-02T03:10:11;8.20;79.30
23713;DHT22;12035;49.978;8.298;2024-03-02T03:15:09;8.20;79.40
23713;DHT22;12035;49.978;8.298;2024-03-02T03:20:07;8.20;79.50
23713;DHT22;12035;49.978;8.298;2024-03-02T03:25:08;8.20;79.50
23713;DHT22;12035;49.978;8.298;2024-03-02T03:30:06;8.20;79.40
23713;DHT22;12035;49.978;8.298;2024-03-02T03:35:04;8.20;79.20
23713;DHT22;12035;49.978;8.298;2024-03-02T03:40:03;8.20;79.00
23713;DHT22;12035;49.978;8.298;2024-03-02T03:45:07;8.20;78.80
23713;DHT22;12035;49.978;8.298;2024-03-02T03:50:06;8.20;78.80
23713;DHT22;12035;49.978;8.298;2024-03-02T03:55:07;8.20;78.60
23713;DHT22;12035;49.978;8.298;2024-03-02T04:00:10;8.20;78.50
23713;DHT22;12035;49.978;8.298;2024-03-02T04:05:08;8.20;78.50
23713;DHT22;12035;49.978;8.298;2024-03-02T04:10:08;8.20;78.20
23713;DHT22;12035;49.978;8.298;2024-03-02T04:15:07;8.20;78.20
23713;DHT22;12035;49.978;8.298;2024-03-02T04:20:07;8.10;78.00
23713;DHT22;12035;49.978;8.298;2024-03-02T04:25:04;8.10;78.00
23713;DHT22;12035;49.978;8.298;2024-03-02T04:30:04;8.10;78.00
23713;DHT22;12035;49.978;8.298;2024-03-02T04:35:04;8.10;78.00
23713;DHT22;12035;49.978;8.298;2024-03-02T04:40:04;8.00;77.90
23713;DHT22;12035;49.978;8.298;2024-03-02T04:45:04;8.00;77.80
23713;DHT22;12035;49.978;8.298;2024-03-02T04:50:01;8.00;77.90
23713;DHT22;12035;49.978;8.298;2024-03-02T04:55:01;7.90;77.90
23713;DHT22;12035;49.978;8.298;2024-03-02T05:00:24;7.90;77.80
23713;DHT22;12035;49.978;8.298;2024-03-02T05:05:23;7.80;77.80
23713;DHT22;12035;49.978;8.298;2024-03-02T05:10:21;7.80;78.00
23713;DHT22;12035;49.978;8.298;2024-03-02T05:15:19;7.80;78.10
23713;DHT22;12035;49.978;8.298;2024-03-02T05:20:17;7.80;78.30
23713;DHT22;12035;49.978;8.298;2024-03-02T05:25:15;7.80;78.50
23713;DHT22;12035;49.978;8.298;2024-03-02T05:30:13;7.80;78.70
23713;DHT22;12035;49.978;8.298;2024-03-02T05:35:10;7.80;78.80
23713;DHT22;12035;49.978;8.298;2024-03-02T05:40:09;7.80;78.90
23713;DHT22;12035;49.978;8.298;2024-03-02T05:45:08;7.80;79.10
23713;DHT22;12035;49.978;8.298;2024-03-02T05:50:06;7.90;79.50
23713;DHT22;12035;49.978;8.298;2024-03-02T05:55:04;7.90;79.50
23713;DHT22;12035;49.978;8.298;2024-03-02T06:00:02;7.90;79.50
23713;DHT22;12035;49.978;8.298;2024-03-02T06:05:05;8.00;79.60
23713;DHT22;12035;49.978;8.298;2024-03-02T06:10:03;8.00;80.50
23713;DHT22;12035;49.978;8.298;2024-03-02T06:15:03;8.10;79.80
23713;DHT22;12035;49.978;8.298;2024-03-02T06:20:01;8.10;79.80
23713;DHT22;12035;49.978;8.298;2024-03-02T06:24:59;8.20;79.90
23713;DHT22;12035;49.978;8.298;2024-03-02T06:29:56;8.20;80.20
23713;DHT22;12035;49.978;8.298;2024-03-02T06:34:53;8.20;80.30
23713;DHT22;12035;49.978;8.298;2024-03-02T06:39:50;8.30;80.40
23713;DHT22;12035;49.978;8.298;2024-03-02T06:44:49;8.30;80.60
23713;DHT22;12035;49.978;8.298;2024-03-02T06:49:46;8.30;80.90
23713;DHT22;12035;49.978;8.298;2024-03-02T06:54:43;8.30;80.90
23713;DHT22;12035;49.978;8.298;2024-03-02T06:59:40;8.30;81.30
23713;DHT22;12035;49.978;8.298;2024-03-02T07:04:38;8.30;82.30
23713;DHT22;12035;49.978;8.298;2024-03-02T07:09:35;8.40;81.70
23713;DHT22;12035;49.978;8.298;2024-03-02T07:14:35;8.40;81.70
23713;DHT22;12035;49.978;8.298;2024-03-02T07:20:05;8.50;82.00
23713;DHT22;12035;49.978;8.298;2024-03-02T07:25:04;8.50;82.10
23713;DHT22;12035;49.978;8.298;2024-03-02T07:30:03;8.50;82.70
23713;DHT22;12035;49.978;8.298;2024-03-02T07:35:00;8.70;84.00
23713;DHT22;12035;49.978;8.298;2024-03-02T07:40:00;9.00;84.70
23713;DHT22;12035;49.978;8.298;2024-03-02T07:44:58;9.30;83.80
23713;DHT22;12035;49.978;8.298;2024-03-02T07:49:55;9.50;82.80
23713;DHT22;12035;49.978;8.298;2024-03-02T07:54:52;9.50;82.00
23713;DHT22;12035;49.978;8.298;2024-03-02T07:59:51;9.40;81.60
23713;DHT22;12035;49.978;8.298;2024-03-02T08:04:48;9.40;81.80
23713;DHT22;12035;49.978;8.298;2024-03-02T08:09:46;9.30;81.80
23713;DHT22;12035;49.978;8.298;2024-03-02T08:14:43;9.30;82.10
23713;DHT22;12035;49.978;8.298;2024-03-02T08:19:41;9.30;82.10
23713;DHT22;12035;49.978;8.298;2024-03-02T08:24:43;9.30;82.30
23713;DHT22;12035;49.978;8.298;2024-03-02T08:29:43;9.30;82.50
23713;DHT22;12035;49.978;8.298;2024-03-02T08:34:42;9.40;82.60
23713;DHT22;12035;49.978;8.298;2024-03-02T08:39:39;9.50;82.90
23713;DHT22;12035;49.978;8.298;2024-03-02T08:44:37;9.50;83.20
23713;DHT22;12035;49.978;8.298;2024-03-02T08:49:35;9.70;83.50
23713;DHT22;12035;49.978;8.298;2024-03-02T08:54:35;9.90;83.30
23713;DHT22;12035;49.978;8.298;2024-03-02T08:59:33;9.90;83.00
23713;DHT22;12035;49.978;8.298;2024-03-02T09:04:30;10.00;83.00
23713;DHT22;12035;49.978;8.298;2024-03-02T09:09:27;10.10;82.90
23713;DHT22;12035;49.978;8.298;2024-03-02T09:14:26;10.20;83.60
23713;DHT22;12035;49.978;8.298;2024-03-02T09:19:23;10.20;82.00
23713;DHT22;12035;49.978;8.298;2024-03-02T09:24:20;10.30;81.90
23713;DHT22;12035;49.978;8.298;2024-03-02T09:29:17;10.30;81.90
23713;DHT22;12035;49.978;8.298;2024-03-02T09:34:18;10.40;81.80
23713;DHT22;12035;49.978;8.298;2024-03-02T09:39:15;10.50;81.40
23713;DHT22;12035;49.978;8.298;2024-03-02T09:44:13;10.50;81.00
23713;DHT22;12035;49.978;8.298;2024-03-02T09:49:11;10.50;81.80
23713;DHT22;12035;49.978;8.298;2024-03-02T09:54:11;10.60;81.20
23713;DHT22;12035;49.978;8.298;2024-03-02T09:59:08;10.70;81.00
23713;DHT22;12035;49.978;8.298;2024-03-02T10:04:06;10.80;80.60
23713;DHT22;12035;49.978;8.298;2024-03-02T10:09:03;10.90;80.20
23713;DHT22;12035;49.978;8.298;2024-03-02T10:14:06;11.00;80.00
23713;DHT22;12035;49.978;8.298;2024-03-02T10:19:16;11.00;79.90
23713;DHT22;12035;49.978;8.298;2024-03-02T10:24:14;11.00;79.80
23713;DHT22;12035;49.978;8.298;2024-03-02T10:29:12;11.10;79.80
23713;DHT22;12035;49.978;8.298;2024-03-02T10:34:10;11.10;79.80
23713;DHT22;12035;49.978;8.298;2024-03-02T10:39:08;11.20;79.70
23713;DHT22;12035;49.978;8.298;2024-03-02T10:44:06;11.40;79.10
23713;DHT22;12035;49.978;8.298;2024-03-02T10:49:06;11.50;78.70
23713;DHT22;12035;49.978;8.298;2024-03-02T10:54:04;11.70;78.40
23713;DHT22;12035;49.978;8.298;2024-03-02T10:59:03;11.70;77.90
23713;DHT22;12035;49.978;8.298;2024-03-02T11:04:08;11.80;77.70
23713;DHT22;12035;49.978;8.298;2024-03-02T11:09:07;11.90;77.60
23713;DHT22;12035;49.978;8.298;2024-03-02T11:14:07;12.00;77.60
23713;DHT22;12035;49.978;8.298;2024-03-02T11:19:07;12.10;77.30
23713;DHT22;12035;49.978;8.298;2024-03-02T11:24:28;12.20;76.90
23713;DHT22;12035;49.978;8.298;2024-03-02T11:29:44;12.30;76.30
23713;DHT22;12035;49.978;8.298;2024-03-02T11:34:47;12.40;76.10
23713;DHT22;12035;49.978;8.298;2024-03-02T11:39:46;12.50;76.10
23713;DHT22;12035;49.978;8.298;2024-03-02T11:44:46;12.50;75.90
23713;DHT22;12035;49.978;8.298;2024-03-02T11:49:49;12.60;75.60
23713;DHT22;12035;49.978;8.298;2024-03-02T11:54:48;12.80;75.20
23713;DHT22;12035;49.978;8.298;2024-03-02T11:59:47;12.80;74.50
23713;DHT22;12035;49.978;8.298;2024-03-02T12:04:47;12.90;74.30
23713;DHT22;12035;49.978;8.298;2024-03-02T12:09:45;13.10;73.90
23713;DHT22;12035;49.978;8.298;2024-03-02T12:14:50;13.20;73.90
23713;DHT22;12035;49.978;8.298;2024-03-02T12:19:52;13.40;72.60
23713;DHT22;12035;49.978;8.298;2024-03-02T12:24:49;13.50;72.10
23713;DHT22;12035;49.978;8.298;2024-03-02T12:29:46;13.70;72.00
23713;DHT22;12035;49.978;8.298;2024-03-02T12:34:47;13.90;72.30
23713;DHT22;12035;49.978;8.298;2024-03-02T12:39:45;14.10;71.90
23713;DHT22;12035;49.978;8.298;2024-03-02T12:44:42;14.30;73.00
23713;DHT22;12035;49.978;8.298;2024-03-02T12:49:40;14.40;72.20
23713;DHT22;12035;49.978;8.298;2024-03-02T12:54:38;14.60;71.90
23713;DHT22;12035;49.978;8.298;2024-03-02T12:59:36;14.80;71.60
23713;DHT22;12035;49.978;8.298;2024-03-02T13:04:33;14.90;70.90
23713;DHT22;12035;49.978;8.298;2024-03-02T13:09:30;15.10;69.70
23713;DHT22;12035;49.978;8.298;2024-03-02T13:14:32;15.20;67.80
23713;DHT22;12035;49.978;8.298;2024-03-02T13:19:30;15.40;67.00
23713;DHT22;12035;49.978;8.298;2024-03-02T13:24:27;15.50;67.00
23713;DHT22;12035;49.978;8.298;2024-03-02T13:29:25;15.60;66.80
23713;DHT22;12035;49.978;8.298;2024-03-02T13:34:24;15.80;65.60
23713;DHT22;12035;49.978;8.298;2024-03-02T13:39:21;15.80;63.00
23713;DHT22;12035;49.978;8.298;2024-03-02T13:44:19;15.90;63.60
23713;DHT22;12035;49.978;8.298;2024-03-02T13:49:17;16.00;63.50
23713;DHT22;12035;49.978;8.298;2024-03-02T13:54:15;15.90;62.50
23713;DHT22;12035;49.978;8.298;2024-03-02T13:59:12;15.90;61.30
23713;DHT22;12035;49.978;8.298;2024-03-02T14:04:09;15.90;62.40
23713;DHT22;12035;49.978;8.298;2024-03-02T14:09:06;16.00;62.40
23713;DHT22;12035;49.978;8.298;2024-03-02T14:14:04;16.00;62.80
23713;DHT22;12035;49.978;8.298;2024-03-02T14:19:02;16.00;61.60
23713;DHT22;12035;49.978;8.298;2024-03-02T14:23:59;15.90;61.80
23713;DHT22;12035;49.978;8.298;2024-03-02T14:28:56;16.00;62.10
23713;DHT22;12035;49.978;8.298;2024-03-02T14:33:55;16.00;61.40
23713;DHT22;12035;49.978;8.298;2024-03-02T14:38:52;16.00;61.10
23713;DHT22;12035;49.978;8.298;2024-03-02T14:43:49;16.00;61.70
23713;DHT22;12035;49.978;8.298;2024-03-02T14:48:46;16.00;61.60
23713;DHT22;12035;49.978;8.298;2024-03-02T14:53:45;16.00;61.60
23713;DHT22;12035;49.978;8.298;2024-03-02T14:58:42;16.00;61.20
23713;DHT22;12035;49.978;8.298;2024-03-02T15:03:40;16.10;61.20
23713;DHT22;12035;49.978;8.298;2024-03-02T15:08:37;16.10;60.40
23713;DHT22;12035;49.978;8.298;2024-03-02T15:13:38;16.20;60.80
23713;DHT22;12035;49.978;8.298;2024-03-02T15:18:35;16.10;60.30
23713;DHT22;12035;49.978;8.298;2024-03-02T15:23:32;16.10;60.40
23713;DHT22;12035;49.978;8.298;2024-03-02T15:28:29;16.10;60.40
23713;DHT22;12035;49.978;8.298;2024-03-02T15:33:28;16.10;60.60
23713;DHT22;12035;49.978;8.298;2024-03-02T15:38:26;16.10;60.10
23713;DHT22;12035;49.978;8.298;2024-03-02T15:43:23;16.10;60.50
23713;DHT22;12035;49.978;8.298;2024-03-02T15:48:20;16.10;60.60
23713;DHT22;12035;49.978;8.298;2024-03-02T15:53:20;16.10;60.70
23713;DHT22;12035;49.978;8.298;2024-03-02T15:58:18;16.00;60.00
23713;DHT22;12035;49.978;8.298;2024-03-02T16:03:15;16.00;60.10
23713;DHT22;12035;49.978;8.298;2024-03-02T16:08:13;16.00;60.50
23713;DHT22;12035;49.978;8.298;2024-03-02T16:13:11;15.90;60.70
23713;DHT22;12035;49.978;8.298;2024-03-02T16:18:08;15.90;60.80
23713;DHT22;12035;49.978;8.298;2024-03-02T16:23:05;15.80;61.00
23713;DHT22;12035;49.978;8.298;2024-03-02T16:28:03;15.70;61.30
23713;DHT22;12035;49.978;8.298;2024-03-02T16:33:02;15.60;61.60
23713;DHT22;12035;49.978;8.298;2024-03-02T16:37:59;15.60;61.80
23713;DHT22;12035;49.978;8.298;2024-03-02T16:42:56;15.50;62.20
23713;DHT22;12035;49.978;8.298;2024-03-02T16:47:57;15.50;62.50
23713;DHT22;12035;49.978;8.298;2024-03-02T16:52:56;15.40;62.60
23713;DHT22;12035;49.978;8.298;2024-03-02T16:57:54;15.40;62.90
23713;DHT22;12035;49.978;8.298;2024-03-02T17:02:51;15.30;63.10
23713;DHT22;12035;49.978;8.298;2024-03-02T17:07:48;15.30;63.20
23713;DHT22;12035;49.978;8.298;2024-03-02T17:12:47;15.20;63.40
23713;DHT22;12035;49.978;8.298;2024-03-02T17:17:44;15.20;63.50
23713;DHT22;12035;49.978;8.298;2024-03-02T17:22:41;15.20;63.60
23713;DHT22;12035;49.978;8.298;2024-03-02T17:27:38;15.10;63.70
23713;DHT22;12035;49.978;8.298;2024-03-02T17:32:36;15.10;63.90
23713;DHT22;12035;49.978;8.298;2024-03-02T17:37:33;15.10;64.00
23713;DHT22;12035;49.978;8.298;2024-03-02T17:42:32;15.00;64.00
23713;DHT22;12035;49.978;8.298;2024-03-02T17:47:30;15.00;64.00
23713;DHT22;12035;49.978;8.298;2024-03-02T17:52:36;14.90;64.10
23713;DHT22;12035;49.978;8.298;2024-03-02T17:57:33;14.90;64.20
23713;DHT22;12035;49.978;8.298;2024-03-02T18:02:30;14.80;64.40
23713;DHT22;12035;49.978;8.298;2024-03-02T18:07:30;14.90;64.50
23713;DHT22;12035;49.978;8.298;2024-03-02T18:12:27;14.80;64.50
23713;DHT22;12035;49.978;8.298;2024-03-02T18:17:25;14.80;64.70
23713;DHT22;12035;49.978;8.298;2024-03-02T18:22:22;14.80;64.70
23713;DHT22;12035;49.978;8.298;2024-03-02T18:27:20;14.80;64.80
23713;DHT22;12035;49.978;8.298;2024-03-02T18:32:17;14.80;64.80
23713;DHT22;12035;49.978;8.298;2024-03-02T18:37:14;14.80;64.90
23713;DHT22;12035;49.978;8.298;2024-03-02T18:42:17;14.80;65.00
23713;DHT22;12035;49.978;8.298;2024-03-02T18:47:15;14.80;65.00
23713;DHT22;12035;49.978;8.298;2024-03-02T18:52:12;14.70;65.00
23713;DHT22;12035;49.978;8.298;2024-03-02T18:57:09;14.80;65.00
23713;DHT22;12035;49.978;8.298;2024-03-02T19:02:06;14.70;64.90
23713;DHT22;12035;49.978;8.298;2024-03-02T19:07:05;14.60;64.80
23713;DHT22;12035;49.978;8.298;2024-03-02T19:12:02;14.60;64.90
23713;DHT22;12035;49.978;8.298;2024-03-02T19:17:00;14.50;65.50
23713;DHT22;12035;49.978;8.298;2024-03-02T19:21:57;14.40;64.70
23713;DHT22;12035;49.978;8.298;2024-03-02T19:26:55;14.40;64.80
23713;DHT22;12035;49.978;8.298;2024-03-02T19:31:52;14.40;64.90
23713;DHT22;12035;49.978;8.298;2024-03-02T19:36:49;14.40;65.00
23713;DHT22;12035;49.978;8.298;2024-03-02T19:41:49;14.30;64.90
23713;DHT22;12035;49.978;8.298;2024-03-02T19:46:48;14.20;64.90
23713;DHT22;12035;49.978;8.298;2024-03-02T19:51:45;14.20;65.10
23713;DHT22;12035;49.978;8.298;2024-03-02T19:56:42;14.10;65.20
23713;DHT22;12035;49.978;8.298;2024-03-02T20:01:40;14.10;65.40
23713;DHT22;12035;49.978;8.298;2024-03-02T20:06:38;14.10;65.50
23713;DHT22;12035;49.978;8.298;2024-03-02T20:11:36;14.00;65.70
23713;DHT22;12035;49.978;8.298;2024-03-02T20:16:33;13.90;65.80
23713;DHT22;12035;49.978;8.298;2024-03-02T20:21:30;14.00;66.00
23713;DHT22;12035;49.978;8.298;2024-03-02T20:26:28;13.90;66.20
23713;DHT22;12035;49.978;8.298;2024-03-02T20:31:25;13.90;66.40
23713;DHT22;12035;49.978;8.298;2024-03-02T20:36:22;13.80;66.60
23713;DHT22;12035;49.978;8.298;2024-03-02T20:41:20;13.80;67.00
23713;DHT22;12035;49.978;8.298;2024-03-02T20:46:18;13.70;67.30
23713;DHT22;12035;49.978;8.298;2024-03-02T20:51:15;13.60;67.90
23713;DHT22;12035;49.978;8.298;2024-03-02T20:56:12;13.50;68.20
23713;DHT22;12035;49.978;8.298;2024-03-02T21:01:11;13.50;68.40
23713;DHT22;12035;49.978;8.298;2024-03-02T21:06:10;13.40;68.70
23713;DHT22;12035;49.978;8.298;2024-03-02T21:11:07;13.40;68.90
23713;DHT22;12035;49.978;8.298;2024-03-02T21:16:05;13.40;69.10
23713;DHT22;12035;49.978;8.298;2024-03-02T21:21:05;13.30;69.40
23713;DHT22;12035;49.978;8.298;2024-03-02T21:26:03;13.30;69.70
23713;DHT22;12035;49.978;8.298;2024-03-02T21:31:00;13.20;70.00
23713;DHT22;12035;49.978;8.298;2024-03-02T21:35:57;13.20;70.20
23713;DHT22;12035;49.978;8.298;2024-03-02T21:40:54;13.10;70.30
23713;DHT22;12035;49.978;8.298;2024-03-02T21:45:53;13.10;70.60
23713;DHT22;12035;49.978;8.298;2024-03-02T21:50:50;13.00;71.00
23713;DHT22;12035;49.978;8.298;2024-03-02T21:55:47;13.00;71.00
23713;DHT22;12035;49.978;8.298;2024-03-02T22:00:44;13.00;71.00
23713;DHT22;12035;49.978;8.298;2024-03-02T22:05:43;13.00;71.10
23713;DHT22;12035;49.978;8.298;2024-03-02T22:10:40;13.00;71.40
23713;DHT22;12035;49.978;8.298;2024-03-02T22:15:37;13.00;71.30
23713;DHT22;12035;49.978;8.298;2024-03-02T22:20:34;13.00;71.40
23713;DHT22;12035;49.978;8.298;2024-03-02T22:25:34;13.00;71.50
23713;DHT22;12035;49.978;8.298;2024-03-02T22:30:31;13.00;71.90
23713;DHT22;12035;49.978;8.298;2024-03-02T22:35:28;12.90;72.30
23713;DHT22;12035;49.978;8.298;2024-03-02T22:40:25;12.80;72.10
23713;DHT22;12035;49.978;8.298;2024-03-02T22:45:23;12.80;72.10
23713;DHT22;12035;49.978;8.298;2024-03-02T22:50:20;12.80;72.30
23713;DHT22;12035;49.978;8.298;2024-03-02T22:55:18;12.70;72.30
23713;DHT22;12035;49.978;8.298;2024-03-02T23:00:15;12.60;72.90
23713;DHT22;12035;49.978;8.298;2024-03-02T23:05:28;12.60;72.80
23713;DHT22;12035;49.978;8.298;2024-03-02T23:10:25;12.60;73.10
23713;DHT22;12035;49.978;8.298;2024-03-02T23:15:22;12.50;73.20
23713;DHT22;12035;49.978;8.298;2024-03-02T23:20:24;12.40;73.70
23713;DHT22;12035;49.978;8.298;2024-03-02T23:25:23;12.40;73.80
23713;DHT22;12035;49.978;8.298;2024-03-02T23:30:20;12.40;74.00
23713;DHT22;12035;49.978;8.298;2024-03-02T23:35:18;12.50;74.10
23713;DHT22;12035;49.978;8.298;2024-03-02T23:40:15;12.40;74.00
23713;DHT22;12035;49.978;8.298;2024-03-02T23:45:42;12.40;73.90
23713;DHT22;12035;49.978;8.298;2024-03-02T23:50:39;12.40;74.10
23713;DHT22;12035;49.978;8.298;2024-03-02T23:55:36;12.40;74.00
